createdAt,value
2023-05-10T00:01:30.054Z,100715.72
2023-05-10T00:06:34.954Z,100716.63
2023-05-10T00:11:38.325Z,100713.97
2023-05-10T00:16:42.053Z,100705.16
2023-05-10T00:21:46.987Z,100710.44
2023-05-10T00:26:50.636Z,100710.41
2023-05-10T00:31:54.154Z,100719.22
2023-05-10T00:36:59.213Z,100710.44
2023-05-10T00:42:02.776Z,100713.97
2023-05-10T00:47:06.272Z,100719.22
2023-05-10T00:52:11.587Z,100690.31
2023-05-10T00:57:15.264Z,100707.81
2023-05-10T01:02:19.081Z,100706.91
2023-05-10T01:07:24.482Z,100705.13
2023-05-10T01:12:28.699Z,100715.69
2023-05-10T01:17:33.132Z,100708.69
2023-05-10T01:23:02.649Z,100706.97
2023-05-10T01:28:29.267Z,100706.97
2023-05-10T01:33:37.797Z,100699.94
2023-05-10T01:38:45.473Z,100699.88
2023-05-10T01:44:12.089Z,100706.91
2023-05-10T01:49:25.815Z,100691.06
2023-05-10T01:54:31.300Z,100700.75
2023-05-10T01:59:41.968Z,100693.66
2023-05-10T02:04:48.721Z,100699.75
2023-05-10T02:09:53.321Z,100700.59
2023-05-10T02:14:58.094Z,100696.09
2023-05-10T02:20:04.979Z,100703.13
2023-05-10T02:25:11.059Z,100698.66
2023-05-10T02:30:15.657Z,100696.84
2023-05-10T02:35:21.627Z,100703.78
2023-05-10T02:40:28.637Z,100686.97
2023-05-10T02:45:34.615Z,100686.84
2023-05-10T02:50:41.428Z,100693.72
2023-05-10T02:55:48.696Z,100692.63
2023-05-10T03:00:52.337Z,100680.03
2023-05-10T03:05:57.851Z,100689.44
2023-05-10T03:11:17.530Z,100686.47
2023-05-10T03:16:28.041Z,100684.44
2023-05-10T03:21:34.553Z,100681.53
2023-05-10T03:26:39.559Z,100681.22
2023-05-10T03:31:43.269Z,100679.06
2023-05-10T03:36:48.303Z,100672.38
2023-05-10T03:41:51.770Z,100679.78
2023-05-10T03:46:55.319Z,100681.06
2023-05-10T03:52:00.289Z,100676.94
2023-05-10T03:57:04.030Z,100674.53
2023-05-10T04:02:07.745Z,100672.09
2023-05-10T04:07:12.892Z,100669.91
2023-05-10T04:12:16.311Z,100661.38
2023-05-10T04:17:19.853Z,100663.63
2023-05-10T04:22:24.741Z,100656.78
2023-05-10T04:27:28.241Z,100653.34
2023-05-10T04:32:32.531Z,100652.25
2023-05-10T04:37:37.707Z,100656.31
2023-05-10T04:42:43.449Z,100638.91
2023-05-10T04:47:47.155Z,100651.34
2023-05-10T04:52:53.204Z,100644.38
2023-05-10T04:57:58.386Z,100646.91
2023-05-10T05:03:02.240Z,100646.88
2023-05-10T05:08:08.268Z,100642.47
2023-05-10T05:13:11.787Z,100640.28
2023-05-10T05:18:15.335Z,100642.56
2023-05-10T05:23:21.848Z,100630.66
2023-05-10T05:28:25.216Z,100633.97
2023-05-10T05:33:28.586Z,100621.47
2023-05-10T05:38:33.732Z,100619.16
2023-05-10T05:43:38.532Z,100622.31
2023-05-10T05:48:42.158Z,100619.19
2023-05-10T05:53:47.013Z,100614.28
2023-05-10T05:58:50.812Z,100606.16
2023-05-10T06:03:54.431Z,100617.16
2023-05-10T06:08:59.494Z,100604.47
2023-05-10T06:14:03.178Z,100601.09
2023-05-10T06:19:06.630Z,100591.38
2023-05-10T06:24:11.493Z,100594.66
2023-05-10T06:29:16.485Z,100598.53
2023-05-10T06:34:19.995Z,100583.41
2023-05-10T06:39:24.945Z,100581.59
2023-05-10T06:44:28.442Z,100581.28
2023-05-10T06:49:32.045Z,100578.72
2023-05-10T06:54:36.912Z,100573.94
2023-05-10T06:59:40.393Z,100571.69
2023-05-10T07:04:43.826Z,100570.44
2023-05-10T07:09:49.041Z,100575.03
2023-05-10T07:14:52.533Z,100567.66
2023-05-10T07:19:55.950Z,100572.53
2023-05-10T07:25:00.932Z,100555.78
2023-05-10T07:30:04.346Z,100557.31
2023-05-10T07:35:10.345Z,100550.13
2023-05-10T07:40:15.475Z,100545.47
2023-05-10T07:45:19.257Z,100540.41
2023-05-10T07:50:22.936Z,100537.34
2023-05-10T07:55:27.783Z,100525.69
2023-05-10T08:00:31.093Z,100521.84
2023-05-10T08:05:35.860Z,100503.13
2023-05-10T08:10:41.340Z,100501.41
2023-05-10T08:15:45.063Z,100500.47
2023-05-10T08:20:48.701Z,100503.31
2023-05-10T08:25:53.659Z,100498.22
2023-05-10T08:30:57.206Z,100490.59
2023-05-10T08:36:00.585Z,100486.75
2023-05-10T08:41:07.249Z,100483.44
2023-05-10T08:46:12.801Z,100477.31
2023-05-10T08:51:19.539Z,100482.00
2023-05-10T08:56:24.805Z,100482.00
2023-05-10T09:01:29.449Z,100481.94
2023-05-10T09:06:33.302Z,100473.44
2023-05-10T09:11:38.165Z,100471.59
2023-05-10T09:16:42.596Z,100447.06
2023-05-10T09:21:46.258Z,100458.84
2023-05-10T09:26:51.470Z,100452.56
2023-05-10T09:31:55.924Z,100447.97
2023-05-10T09:37:02.112Z,100442.09
2023-05-10T09:42:08.696Z,100433.22
2023-05-10T09:47:12.246Z,100426.72
2023-05-10T09:52:15.619Z,100424.38
2023-05-10T09:57:23.886Z,100418.84
2023-05-10T10:02:31.655Z,100410.59
2023-05-10T10:07:36.453Z,100397.00
2023-05-10T10:12:42.767Z,100401.81
2023-05-10T10:17:47.510Z,100390.59
2023-05-10T10:22:51.668Z,100391.56
2023-05-10T10:28:11.259Z,100384.31
2023-05-10T10:33:41.396Z,100385.91
2023-05-10T10:39:00.751Z,100392.16
2023-05-10T10:44:41.422Z,100371.84
2023-05-10T10:49:46.429Z,100379.53
2023-05-10T10:54:54.105Z,100363.59
2023-05-10T11:00:26.950Z,100366.78
2023-05-10T11:05:48.134Z,100368.50
2023-05-10T11:10:54.146Z,100356.47
2023-05-10T11:16:00.076Z,100348.09
2023-05-10T11:21:06.333Z,100350.53
2023-05-10T11:26:12.158Z,100348.97
2023-05-10T11:31:18.057Z,100347.81
2023-05-10T11:36:23.753Z,100327.91
2023-05-10T11:41:29.040Z,100321.44
2023-05-10T11:46:34.002Z,100317.84
2023-05-10T11:51:38.461Z,100296.94
2023-05-10T11:56:42.789Z,100305.81
2023-05-10T12:01:47.662Z,100298.00
2023-05-10T12:06:51.404Z,100300.84
2023-05-10T12:11:58.563Z,100295.38
2023-05-10T12:17:03.542Z,100295.22
2023-05-10T12:22:07.740Z,100292.78
2023-05-10T12:32:52.421Z,100289.97
2023-05-10T12:37:56.038Z,100295.56
2023-05-10T12:42:59.732Z,100275.78
2023-05-10T12:48:04.935Z,100283.38
2023-05-10T12:53:08.598Z,100289.72
2023-05-10T12:58:15.832Z,100275.97
2023-05-10T13:03:25.831Z,100275.22
2023-05-10T13:08:31.184Z,100277.84
2023-05-10T13:13:35.912Z,100263.59
2023-05-10T13:18:40.921Z,100262.53
2023-05-10T13:23:44.389Z,100271.47
2023-05-10T13:28:47.845Z,100266.84
2023-05-10T13:33:52.918Z,100266.44
2023-05-10T13:38:57.713Z,100256.69
2023-05-10T13:44:01.550Z,100259.13
2023-05-10T13:49:07.167Z,100252.84
2023-05-10T13:54:13.350Z,100260.25
2023-05-10T13:59:17.200Z,100258.59
2023-05-10T14:04:22.057Z,100254.53
2023-05-10T14:09:25.543Z,100254.25
2023-05-10T14:14:30.232Z,100247.44
2023-05-10T14:19:35.328Z,100248.25
2023-05-10T14:24:38.635Z,100244.00
2023-05-10T14:29:42.096Z,100244.22
2023-05-10T14:34:46.978Z,100253.63
2023-05-10T14:39:50.554Z,100245.94
2023-05-10T14:44:54.081Z,100247.47
2023-05-10T14:49:59.342Z,100242.78
2023-05-10T14:55:02.860Z,100243.53
2023-05-10T15:00:08.979Z,100243.16
2023-05-10T15:05:14.306Z,100236.91
2023-05-10T15:10:18.908Z,100220.03
2023-05-10T15:15:23.469Z,100236.38
2023-05-10T15:20:28.458Z,100238.97
2023-05-10T15:25:32.255Z,100241.69
2023-05-10T15:30:35.591Z,100242.13
2023-05-10T15:35:40.790Z,100241.41
2023-05-10T15:40:44.256Z,100240.91
2023-05-10T15:45:47.939Z,100235.72
2023-05-10T15:50:52.708Z,100235.75
2023-05-10T15:55:56.407Z,100234.38
2023-05-10T16:00:59.901Z,100237.28
2023-05-10T16:06:04.920Z,100231.72
2023-05-10T16:11:09.274Z,100221.16
2023-05-10T16:16:13.075Z,100237.06
2023-05-10T16:21:18.019Z,100230.72
2023-05-10T16:26:22.045Z,100231.03
2023-05-10T16:31:25.781Z,100231.53
2023-05-10T16:36:31.451Z,100234.06
2023-05-10T16:41:35.323Z,100230.47
2023-05-10T16:46:39.329Z,100235.13
2023-05-10T16:51:44.654Z,100236.28
2023-05-10T16:56:48.082Z,100233.97
2023-05-10T17:01:53.324Z,100241.41
2023-05-10T17:06:58.719Z,100242.66
2023-05-10T17:12:04.204Z,100244.72
2023-05-10T17:17:08.115Z,100219.00
2023-05-10T17:22:13.773Z,100253.25
2023-05-10T17:27:17.122Z,100249.56
2023-05-10T17:32:20.555Z,100258.03
2023-05-10T17:37:25.706Z,100257.81
2023-05-10T17:42:29.162Z,100265.75
2023-05-10T17:47:32.849Z,100273.91
2023-05-10T17:52:37.766Z,100272.97
2023-05-10T17:57:41.450Z,100280.59
2023-05-10T18:02:44.854Z,100272.03
2023-05-10T18:07:49.774Z,100272.16
2023-05-10T18:12:53.377Z,100279.25
2023-05-10T18:17:57.117Z,100280.25
2023-05-10T18:23:02.630Z,100262.97
2023-05-10T18:28:08.039Z,100272.44
2023-05-10T18:33:12.095Z,100273.50
2023-05-10T18:38:17.169Z,100275.56
2023-05-10T18:43:20.704Z,100275.81
2023-05-10T18:48:24.274Z,100275.09
2023-05-10T18:53:29.099Z,100279.81
2023-05-10T18:58:33.858Z,100278.31
2023-05-10T19:03:37.343Z,100279.63
2023-05-10T19:08:42.325Z,100286.81
2023-05-10T19:13:46.583Z,100283.38
2023-05-10T19:18:51.329Z,100283.72
2023-05-10T19:23:57.372Z,100288.53
2023-05-10T19:29:00.839Z,100271.94
2023-05-10T19:34:05.973Z,100279.13
2023-05-10T19:39:10.839Z,100281.59
2023-05-10T19:44:14.582Z,100285.09
2023-05-10T19:49:18.242Z,100284.22
2023-05-10T19:54:23.393Z,100287.31
2023-05-10T19:59:26.804Z,100292.25
2023-05-10T20:04:30.261Z,100295.38
2023-05-10T20:09:35.053Z,100295.88
2023-05-10T20:14:38.662Z,100293.59
2023-05-10T20:19:43.847Z,100291.22
2023-05-10T20:24:48.734Z,100297.66
2023-05-10T20:29:52.148Z,100284.44
2023-05-10T20:34:56.939Z,100292.50
2023-05-10T20:40:02.174Z,100297.03
2023-05-10T20:45:08.665Z,100288.47
2023-05-10T20:50:12.854Z,100296.66
2023-05-10T20:55:17.936Z,100293.97
2023-05-10T21:00:21.980Z,100290.31
2023-05-10T21:05:25.745Z,100286.66
2023-05-10T21:10:30.587Z,100293.63
2023-05-10T21:15:34.330Z,100291.88
2023-05-10T21:20:37.837Z,100296.47
2023-05-10T21:25:42.588Z,100292.16
2023-05-10T21:30:46.446Z,100280.69
2023-05-10T21:35:50.065Z,100282.44
2023-05-10T21:40:55.218Z,100284.41
2023-05-10T21:45:58.629Z,100283.72
2023-05-10T21:51:02.301Z,100282.00
2023-05-10T21:56:07.842Z,100283.72
2023-05-10T22:01:11.286Z,100275.38
2023-05-10T22:06:14.667Z,100284.06
2023-05-10T22:11:19.507Z,100293.44
2023-05-10T22:16:23.084Z,100288.06
2023-05-10T22:21:26.485Z,100293.00
2023-05-10T22:26:31.485Z,100285.03
2023-05-10T22:31:34.978Z,100284.13
2023-05-10T22:36:38.572Z,100281.53
2023-05-10T22:41:43.502Z,100284.22
2023-05-10T22:46:47.068Z,100280.75
2023-05-10T22:51:50.668Z,100281.84
2023-05-10T22:56:57.063Z,100282.03
2023-05-10T23:02:00.762Z,100287.44
2023-05-10T23:07:04.371Z,100279.38
2023-05-10T23:12:09.246Z,100280.94
2023-05-10T23:17:12.741Z,100280.28
2023-05-10T23:22:16.188Z,100283.53
2023-05-10T23:27:21.297Z,100281.47
2023-05-10T23:32:24.945Z,100267.22
2023-05-10T23:37:28.445Z,100285.34
2023-05-10T23:42:34.234Z,100284.28
2023-05-10T23:47:37.803Z,100287.72
2023-05-10T23:52:41.381Z,100283.19
2023-05-10T23:57:46.626Z,100297.09
